General Electric Current Ratio 2006-2020 | GE

Current and historical current ratio for General Electric (GE) from 2006 to 2020. Current ratio can be defined as a liquidity ratio that measures a company's ability to pay short-term obligations. General Electric current ratio for the three months ending June 30, 2020 was 2.21.
General Electric Current Ratio Historical Data
Date Current Assets Current Liabilities Current Ratio
2020-06-30 $130.51B $58.99B 2.21
2020-03-31 $132.47B $69.44B 1.91
2019-12-31 $126.07B $74.26B 1.70
2019-09-30 $117.96B $64.26B 1.84
2019-06-30 $121.51B $70.28B 1.73
2019-03-31 $126.02B $71.21B 1.77
2018-12-31 $107.92B $60.45B 1.79
2018-09-30 $116.78B $70.52B 1.66
2018-06-30 $120.44B $66.37B 1.82
2018-03-31 $129.36B $73.53B 1.76
2017-12-31 $142.93B $79.30B 1.80
2017-09-30 $147.76B $79.52B 1.86
2017-06-30 $146.61B $79.33B 1.85
2017-03-31 $145.94B $77.81B 1.88
2016-12-31 $157.06B $81.58B 1.93
2016-09-30 $166.37B $82.69B 2.01
2016-06-30 $160.38B $83.79B 1.91
2016-03-31 $176.19B $104.28B 1.69
2015-12-31 $170.83B $105.08B 1.63
2015-09-30 $279.10B $84.45B 3.31
2015-06-30 $275.29B $106.11B 2.59
2015-03-31 $335.24B $109.81B 3.05
2014-12-31 $166.16B $111.67B 1.49
2014-09-30 $414.00B $113.96B 3.63
2014-06-30 $414.75B $118.54B 3.50
2014-03-31 $418.58B $121.96B 3.43
2013-12-31 $422.30B $123.09B 3.43
2013-09-30 $421.79B $125.66B 3.36
2013-06-30 $425.73B $122.19B 3.48
2013-03-31 $432.51B $128.51B 3.37
2012-12-31 $426.16B $144.80B 2.94
2012-09-30 $439.76B $162.72B 2.70
2012-06-30 $429.51B $169.78B 2.53
2012-03-31 $446.30B $183.19B 2.44
2011-12-31 $453.62B $181.95B 2.49
2011-09-30 $465.87B $174.59B 2.67
2011-06-30 $471.09B $167.05B 2.82
2011-03-31 $468.15B $153.11B 3.06
2010-12-31 $463.61B $156.72B 2.96
2010-09-30 $484.78B $155.41B 3.12
2010-06-30 $477.63B $159.57B 2.99
2010-03-31 $497.59B $164.33B 3.03
2009-12-31 $483.58B $176.12B 2.75
2009-09-30 $501.87B $210.79B 2.38
2009-06-30 $496.15B $224.91B 2.21
2009-03-31 $482.62B $227.81B 2.12
2008-12-31 $503.33B $218.98B 2.30
2008-09-30 $525.71B $272.61B 1.93
2008-06-30 $533.70B $259.57B 2.06
2008-03-31 $523.32B $253.92B 2.06
2007-12-31 $488.80B $245.24B 1.99
2007-09-30 $469.47B $227.64B 2.06
2007-06-30 $452.72B $230.60B 1.96
2007-03-31 $441.19B $220.47B 2.00
2006-12-31 $430.19B $218.06B 1.97
2006-09-30 $410.39B $211.37B 1.94
2006-06-30 $399.54B $202.49B 1.97
2006-03-31 $378.72B $197.83B 1.91
2005-12-31 $378.27B $204.97B 1.85
2005-09-30 $423.99B $189.24B 2.24
2005-06-30 $483.67B $192.68B 2.51
2005-03-31 $493.69B $204.64B 2.41
Sector Industry Market Cap Revenue
Multi-Sector Conglomerates Diversified Operations $56.021B $95.214B
General Electric is a high-tech industrial company that operates worldwide through its four industrial segments, Power, Renewable Energy, Aviation and Healthcare, and its financial services segment, Capital. The Power segment offers services energy production services. The Renewable Energy segment provides wind turbine platforms, hardware and software, offshore wind turbines, products and services to hydropower industry, blades for wind turbines, and high voltage equipment. The Aviation segment provides jet engines and turboprops for commercial airframes, maintenance, component repair, and overhaul services. The Healthcare segment provides healthcare technologies in medical imaging, digital solutions, drug discovery, biopharmaceutical manufacturing technologies and performance enhancement solutions. The Capital segment leases and finances aircraft, aircraft engines and helicopters, and provides financial solutions. GE is headquartered in Boston, MA.
Stock Name Country Market Cap PE Ratio
Danaher (DHR) United States $145.713B 41.66
Honeywell (HON) United States $108.854B 20.38
3M (MMM) United States $91.201B 18.69
Hitachi (HTHIY) Japan $30.360B 0.00
Mitsubishi (MSBHY) Japan $29.885B 6.30
Jardine Matheson Holdings (JMHLY) China $29.782B 0.00
Citic (CTPCY) Hong Kong, SAR China $28.218B 0.00
Ck Hutchison Holdings (CKHUY) Hong Kong, SAR China $24.410B 0.00
Jardine Strategic Holdings (JSHLY) Bermuda $22.296B 0.00
China Resources Enterprise (CRHKY) Hong Kong, SAR China $22.158B 0.00
Sumitomo (SSUMY) Japan $14.988B 9.45
Icahn Enterprises (IEP) United States $11.489B 0.00
Koninklijke KPN (KKPNF) Netherlands $10.801B 0.00
Bunzl (BZLFY) United Kingdom $10.331B 0.00
Orkla Asa (ORKLY) Norway $9.825B 20.06
Marubeni (MARUY) Japan $9.103B 0.00
Carlisle (CSL) United States $6.873B 17.74
ITT (ITT) United States $5.214B 18.12
Grupo Carso SA De CV (GPOVY) Mexico $4.814B 10.05
China Merchants Holdings (CMHHY) Hong Kong, SAR China $4.113B 0.00
Crane (CR) United States $3.497B 12.64
Macquarie Infrastructure (MIC) United States $2.485B 8.18
Federal Signal (FSS) United States $1.943B 18.27
Shanghai Industrial Holdings (SGHIY) Hong Kong, SAR China $1.750B 0.00
Griffon (GFF) United States $1.133B 15.11
First Pacific (FPAFY) Hong Kong, SAR China $0.947B 0.00
Raven Industries (RAVN) United States $0.848B 27.52
Barloworld (BRRAY) South Africa $0.781B 0.00
National Presto Industries (NPK) United States $0.622B 0.00
Lydall (LDL) United States $0.371B 0.00
HC2 Holdings (HCHC) United States $0.134B 0.00
Noble Group (NOBGY) Hong Kong, SAR China $0.131B 0.00
Steel Partners Holdings LP (SPLP) United States $0.127B 0.00
KUSHCO HOLDINGS, INC (KSHB) United States $0.084B 0.00
Lsb Industries (LXU) United States $0.035B 0.00